Time;durP1;ratioP1;P1;durP2;ratioP2;P2;SDS_P1;SDS_P2;PMS_P1;PMS_P2;Temp;Humidity;BMP_temperature;BMP_pressure;BME280_temperature;BME280_humidity;BME280_pressure;Samples;Min_cycle;Max_cycle;Signal;HPM_P1;HPM_P2
2022/07/05 00:02:05;;;;;;;2.93;1.33;;;;;;;14.96;100.00;102052.00;5037183;28;20212;-66
2022/07/05 00:04:31;;;;;;;4.50;1.60;;;;;;;15.20;100.00;102078.53;5033284;28;20199;-66
2022/07/05 00:09:40;;;;;;;3.30;1.20;;;;;;;15.20;100.00;102083.94;5033394;28;20269;-66
2022/07/05 00:12:06;;;;;;;2.40;1.10;;;;;;;15.19;100.00;102078.72;5034374;28;20839;-66
2022/07/05 00:14:32;;;;;;;5.57;1.20;;;;;;;14.98;100.00;102042.66;5032592;28;20207;-65
2022/07/05 00:16:57;;;;;;;3.30;1.00;;;;;;;15.36;100.00;102074.66;5035576;28;20692;-66
2022/07/05 00:19:22;;;;;;;2.83;1.27;;;;;;;15.23;100.00;102059.22;5033504;28;20307;-66
2022/07/05 00:21:48;;;;;;;2.00;1.23;;;;;;;15.33;100.00;102075.06;5033393;28;20226;-65
2022/07/05 00:24:14;;;;;;;1.73;0.90;;;;;;;15.33;100.00;102072.38;5035477;28;20537;-66
2022/07/05 00:26:39;;;;;;;2.70;1.27;;;;;;;14.82;100.00;102013.28;5035077;28;20708;-66
2022/07/05 00:29:04;;;;;;;1.53;1.00;;;;;;;15.29;100.00;102084.63;5031724;28;20262;-66
2022/07/05 00:31:30;;;;;;;2.50;1.10;;;;;;;15.37;100.00;102079.06;5037605;28;20238;-66
2022/07/05 00:33:55;;;;;;;1.20;1.10;;;;;;;15.29;100.00;102081.91;5037500;28;20669;-67
2022/07/05 00:36:21;;;;;;;1.70;1.00;;;;;;;15.16;100.00;102058.38;5037426;28;20180;-66
2022/07/05 00:38:46;;;;;;;1.20;0.90;;;;;;;15.22;100.00;102081.88;5038665;28;20253;-65
2022/07/05 00:41:12;;;;;;;2.03;1.30;;;;;;;15.43;100.00;102080.13;5039545;28;20268;-65
2022/07/05 00:43:37;;;;;;;1.30;0.83;;;;;;;15.45;100.00;102083.44;5036005;28;20281;-65
2022/07/05 00:46:03;;;;;;;2.20;0.90;;;;;;;15.42;100.00;102086.53;5036207;28;20206;-65
2022/07/05 00:48:28;;;;;;;1.53;0.97;;;;;;;15.07;100.00;102046.03;5041330;28;20214;-66
2022/07/05 00:50:54;;;;;;;1.50;1.00;;;;;;;15.14;100.00;102055.03;5041521;28;20203;-66
2022/07/05 00:53:28;;;;;;;3.20;1.10;;;;;;;15.30;100.00;102075.47;5038763;28;20365;-65
2022/07/05 00:55:54;;;;;;;2.27;1.10;;;;;;;15.21;100.00;102085.59;5037140;28;20269;-65
2022/07/05 00:58:19;;;;;;;1.60;1.00;;;;;;;15.18;100.00;102080.59;5038651;28;20526;-66
2022/07/05 01:00:44;;;;;;;2.90;1.17;;;;;;;14.97;100.00;102081.50;5038555;28;20606;-66
2022/07/05 01:03:11;;;;;;;1.77;1.10;;;;;;;14.92;100.00;102076.69;5035939;28;20185;-66
2022/07/05 01:05:37;;;;;;;1.03;0.90;;;;;;;14.56;100.00;102049.03;5039475;28;20321;-66
2022/07/05 01:08:04;;;;;;;1.50;0.90;;;;;;;14.83;100.00;102085.16;5038473;28;20439;-66
2022/07/05 01:10:30;;;;;;;4.37;1.20;;;;;;;14.93;100.00;102096.47;5037523;28;20462;-65
2022/07/05 01:12:55;;;;;;;2.60;1.00;;;;;;;14.87;100.00;102081.88;5039863;28;20430;-66
2022/07/05 01:15:21;;;;;;;3.57;1.87;;;;;;;14.75;100.00;102079.91;5039741;28;20207;-66
2022/07/05 01:17:47;;;;;;;1.90;1.40;;;;;;;14.53;100.00;102049.41;5038854;28;20179;-66
2022/07/05 01:20:14;;;;;;;1.97;1.70;;;;;;;14.86;100.00;102082.06;5039495;28;20469;-65
2022/07/05 01:22:52;;;;;;;3.13;1.03;;;;;;;14.64;100.00;102033.50;5037652;28;20582;-65
2022/07/05 01:25:19;;;;;;;1.40;1.00;;;;;;;15.01;100.00;102076.53;5036199;28;20462;-66
2022/07/05 01:27:46;;;;;;;2.07;1.20;;;;;;;15.01;100.00;102079.25;5037381;28;20438;-66
2022/07/05 01:30:12;;;;;;;2.40;0.90;;;;;;;14.78;100.00;102041.69;5038167;28;20458;-66
2022/07/05 01:32:38;;;;;;;1.70;0.90;;;;;;;14.94;100.00;102083.78;5034847;28;20438;-66
2022/07/05 01:35:04;;;;;;;1.17;1.07;;;;;;;14.74;100.00;102089.03;5037091;28;20541;-66
2022/07/05 01:37:31;;;;;;;1.73;1.17;;;;;;;14.27;100.00;101996.03;5037362;28;20591;-66
2022/07/05 01:39:58;;;;;;;1.07;0.97;;;;;;;14.77;100.00;102086.78;5038464;28;20455;-66
2022/07/05 01:42:23;;;;;;;2.40;1.20;;;;;;;14.58;100.00;102069.41;5037995;28;20434;-66
2022/07/05 01:44:49;;;;;;;1.70;0.90;;;;;;;14.76;100.00;102079.72;5036382;28;20825;-66
2022/07/05 01:47:16;;;;;;;4.03;1.43;;;;;;;14.47;100.00;102024.00;5033663;28;20183;-66
2022/07/05 01:49:45;;;;;;;2.57;1.33;;;;;;;14.90;100.00;102086.06;5031880;28;20208;-65
2022/07/05 01:52:12;;;;;;;3.00;1.40;;;;;;;15.05;100.00;102075.97;5034822;28;20437;-66
2022/07/05 01:54:38;;;;;;;1.20;1.10;;;;;;;14.66;100.00;102079.22;5035212;28;20430;-66
2022/07/05 01:57:05;;;;;;;2.40;0.90;;;;;;;14.53;100.00;102058.34;5034995;28;20531;-66
2022/07/05 01:59:35;;;;;;;2.90;1.17;;;;;;;14.57;100.00;102077.69;5034695;28;20457;-66
2022/07/05 02:02:02;;;;;;;4.67;1.97;;;;;;;14.56;100.00;102082.25;5032942;28;20435;-66
2022/07/05 02:04:28;;;;;;;2.80;1.40;;;;;;;14.69;100.00;102086.91;5032727;28;20454;-65
2022/07/05 02:06:54;;;;;;;2.80;1.30;;;;;;;14.60;100.00;102077.28;5034158;28;20441;-66
2022/07/05 02:09:19;;;;;;;1.20;1.10;;;;;;;14.49;100.00;102067.81;5035595;28;20846;-66
2022/07/05 02:11:45;;;;;;;1.40;1.20;;;;;;;14.68;100.00;102074.44;5029537;28;20234;-66
2022/07/05 02:14:11;;;;;;;1.90;1.40;;;;;;;14.72;100.00;102075.72;5035774;28;20219;-66
2022/07/05 02:16:37;;;;;;;2.97;1.77;;;;;;;14.52;100.00;102075.56;5034127;28;20559;-65
2022/07/05 02:19:03;;;;;;;2.60;1.23;;;;;;;14.59;100.00;102062.97;5033571;28;23706;-66
2022/07/05 02:21:29;;;;;;;1.70;1.20;;;;;;;14.86;100.00;102069.38;5030773;28;20438;-66
2022/07/05 02:23:54;;;;;;;1.40;1.27;;;;;;;14.52;100.00;102036.94;5030796;28;20841;-66
2022/07/05 02:26:20;;;;;;;2.20;1.13;;;;;;;14.86;100.00;102080.19;5035811;28;20204;-65
2022/07/05 02:28:46;;;;;;;1.43;1.20;;;;;;;14.14;100.00;101988.63;5033232;28;20181;-66
2022/07/05 02:31:12;;;;;;;2.50;1.13;;;;;;;14.57;100.00;102043.41;5036660;28;20639;-65
2022/07/05 02:33:38;;;;;;;1.40;1.13;;;;;;;14.62;100.00;102083.34;5034273;28;20522;-66
2022/07/05 02:36:10;;;;;;;2.23;1.10;;;;;;;14.38;100.00;102047.59;5037440;28;20175;-66
2022/07/05 02:38:36;;;;;;;1.33;1.10;;;;;;;14.43;100.00;102080.22;5037080;28;20492;-66
2022/07/05 02:41:04;;;;;;;2.70;1.20;;;;;;;14.51;100.00;102081.13;5034475;28;20959;-66
2022/07/05 02:43:30;;;;;;;3.60;1.37;;;;;;;14.42;100.00;102043.47;5037668;28;20184;-66
2022/07/05 02:45:55;;;;;;;5.17;1.20;;;;;;;14.41;100.00;102065.28;5035660;28;21027;-66
2022/07/05 02:48:21;;;;;;;1.83;1.30;;;;;;;14.46;100.00;102041.22;5038560;28;20663;-66
2022/07/05 02:50:47;;;;;;;2.37;1.30;;;;;;;14.51;100.00;102079.25;5037631;28;20239;-66
2022/07/05 02:53:13;;;;;;;1.80;1.33;;;;;;;14.43;100.00;102082.09;5021287;28;20186;-66
2022/07/05 02:55:38;;;;;;;2.33;1.10;;;;;;;14.61;100.00;102073.53;5036203;28;20442;-66
2022/07/05 02:58:07;;;;;;;3.10;1.50;;;;;;;14.52;100.00;102045.84;5036468;28;20200;-66
2022/07/05 03:00:32;;;;;;;2.40;1.30;;;;;;;14.41;100.00;102074.19;5038040;28;20253;-66
2022/07/05 03:02:58;;;;;;;1.83;1.10;;;;;;;14.13;100.00;102032.84;5036186;28;20441;-66
2022/07/05 03:05:23;;;;;;;3.60;1.67;;;;;;;14.38;100.00;102085.38;5034229;28;20203;-66
2022/07/05 03:07:49;;;;;;;3.40;1.50;;;;;;;14.32;100.00;102069.13;5033041;28;20188;-66
2022/07/05 03:10:14;;;;;;;1.97;1.50;;;;;;;14.43;100.00;102068.59;5037039;28;20928;-66
2022/07/05 03:12:40;;;;;;;5.50;2.37;;;;;;;14.47;100.00;102078.81;5038713;22;20247;-69
2022/07/05 03:15:06;;;;;;;1.73;1.50;;;;;;;14.44;100.00;102081.91;5013415;28;20189;-72
2022/07/05 03:17:31;;;;;;;5.20;1.87;;;;;;;14.56;100.00;102078.72;5003042;28;20671;-72
2022/07/05 03:19:56;;;;;;;2.90;1.83;;;;;;;14.61;100.00;102077.09;5013924;28;20612;-72
2022/07/05 03:22:22;;;;;;;2.33;1.40;;;;;;;14.67;100.00;102075.50;4998827;28;20207;-72
2022/07/05 03:24:47;;;;;;;2.90;1.70;;;;;;;14.59;100.00;102056.72;5003185;28;20231;-72
2022/07/05 03:27:13;;;;;;;2.17;1.73;;;;;;;14.79;100.00;102079.31;5002391;28;20668;-72
2022/07/05 03:29:38;;;;;;;2.30;1.50;;;;;;;14.62;100.00;102043.66;5001677;28;20185;-72
2022/07/05 03:32:04;;;;;;;1.67;1.10;;;;;;;14.73;100.00;102084.69;4984225;28;20200;-72
2022/07/05 03:34:29;;;;;;;5.13;1.40;;;;;;;14.73;100.00;102073.88;5001691;28;20179;-72
2022/07/05 03:36:55;;;;;;;1.70;1.60;;;;;;;14.35;100.00;102015.59;5002462;28;20188;-72
2022/07/05 03:39:20;;;;;;;2.60;1.30;;;;;;;14.59;100.00;102086.44;5003116;28;20819;-72
2022/07/05 03:41:45;;;;;;;1.80;1.37;;;;;;;14.46;100.00;102087.97;4998420;28;20204;-72
2022/07/05 03:44:11;;;;;;;1.10;1.00;;;;;;;14.56;100.00;102063.34;5005186;28;20224;-72
2022/07/05 03:46:36;;;;;;;2.10;1.80;;;;;;;14.74;100.00;102089.88;5001848;28;20232;-70
2022/07/05 03:49:02;;;;;;;1.43;1.33;;;;;;;14.85;100.00;102092.03;5001596;28;20197;-69
2022/07/05 03:51:27;;;;;;;2.00;1.37;;;;;;;14.68;100.00;102079.84;4999616;28;20211;-69
2022/07/05 03:53:52;;;;;;;2.93;1.30;;;;;;;14.45;100.00;102034.16;5001694;28;20998;-70
2022/07/05 03:56:19;;;;;;;1.73;1.53;;;;;;;14.94;100.00;102087.31;5000703;28;20194;-69
2022/07/05 03:58:48;;;;;;;2.17;1.17;;;;;;;14.84;100.00;102092.22;5002888;28;20177;-69
2022/07/05 04:01:13;;;;;;;2.40;1.60;;;;;;;14.69;100.00;102081.50;5002698;28;20439;-69
2022/07/05 04:03:39;;;;;;;3.13;1.50;;;;;;;14.83;100.00;102093.25;4999982;28;20467;-70
2022/07/05 04:06:04;;;;;;;2.03;1.47;;;;;;;14.90;100.00;102097.69;5000251;28;20670;-69
2022/07/05 04:08:30;;;;;;;2.70;1.53;;;;;;;14.81;100.00;102103.41;5003692;28;20193;-69
2022/07/05 04:10:55;;;;;;;1.67;1.20;;;;;;;14.80;100.00;102090.94;5001158;28;20633;-70
2022/07/05 04:13:20;;;;;;;3.13;1.23;;;;;;;14.65;100.00;102091.88;5000491;28;20220;-69
2022/07/05 04:15:46;;;;;;;1.60;1.23;;;;;;;14.53;100.00;102061.03;5000829;28;20204;-69
2022/07/05 04:18:11;;;;;;;1.27;1.13;;;;;;;14.87;100.00;102105.34;4999143;28;20192;-70
2022/07/05 04:20:37;;;;;;;1.40;1.30;;;;;;;14.73;100.00;102096.31;5000658;28;20720;-69
2022/07/05 04:23:02;;;;;;;2.33;1.40;;;;;;;14.68;100.00;102077.16;4997585;28;20678;-70
2022/07/05 04:25:28;;;;;;;3.33;1.23;;;;;;;14.69;100.00;102106.69;4999869;28;20209;-70
2022/07/05 04:27:54;;;;;;;2.70;1.40;;;;;;;15.01;100.00;102109.78;4998782;28;20264;-70
2022/07/05 04:30:23;;;;;;;2.50;1.30;;;;;;;14.82;100.00;102070.81;5003937;28;20274;-70
2022/07/05 04:32:48;;;;;;;3.10;1.83;;;;;;;14.66;100.00;102063.00;5001663;28;20471;-71
2022/07/05 04:35:14;;;;;;;1.90;1.40;;;;;;;14.96;100.00;102106.88;5007106;28;20455;-71
2022/07/05 04:37:40;;;;;;;2.57;1.47;;;;;;;15.14;100.00;102111.78;5001469;28;20558;-71
2022/07/05 04:40:09;;;;;;;3.40;1.40;;;;;;;14.95;100.00;102074.63;5000616;28;20200;-72
2022/07/05 04:42:35;;;;;;;1.70;1.03;;;;;;;14.98;100.00;102075.06;5002233;28;20841;-71
2022/07/05 04:45:01;;;;;;;2.73;1.30;;;;;;;15.25;100.00;102113.94;5002415;28;20475;-71
2022/07/05 04:47:28;;;;;;;1.67;0.90;;;;;;;14.93;100.00;102034.31;4999977;28;20801;-71
2022/07/05 04:49:54;;;;;;;1.90;1.40;;;;;;;15.34;100.00;102114.59;5000337;28;20192;-70
2022/07/05 04:52:20;;;;;;;2.43;1.20;;;;;;;15.33;100.00;102116.47;5004892;28;20463;-71
2022/07/05 04:54:46;;;;;;;1.83;1.37;;;;;;;15.39;100.00;102125.66;5005047;28;20444;-71
2022/07/05 04:57:11;;;;;;;3.13;1.00;;;;;;;15.10;100.00;102062.69;5003496;28;20197;-71
2022/07/05 04:59:37;;;;;;;1.83;1.40;;;;;;;15.05;100.00;102056.22;5003617;28;20184;-71
2022/07/05 05:02:03;;;;;;;1.50;0.87;;;;;;;15.47;100.00;102116.53;4999134;28;20201;-71
2022/07/05 05:04:28;;;;;;;1.33;1.13;;;;;;;15.61;100.00;102104.75;4999278;28;20235;-71
2022/07/05 05:06:53;;;;;;;1.80;1.10;;;;;;;15.58;100.00;102118.66;4997620;28;20197;-71
2022/07/05 05:09:19;;;;;;;1.93;0.97;;;;;;;15.08;100.00;102047.72;5001812;28;20189;-71
2022/07/05 05:11:44;;;;;;;4.60;1.50;;;;;;;15.71;100.00;102117.94;4997858;28;20566;-71
2022/07/05 05:14:10;;;;;;;3.60;1.53;;;;;;;15.63;100.00;102096.44;5003269;28;20703;-71
2022/07/05 05:16:35;;;;;;;1.73;1.10;;;;;;;15.42;100.00;102063.06;5003326;28;20224;-71
2022/07/05 05:19:00;;;;;;;2.77;1.20;;;;;;;15.73;100.00;102111.25;5001893;28;20189;-71
2022/07/05 05:21:26;;;;;;;1.90;1.20;;;;;;;15.74;100.00;102104.00;4983666;28;20193;-71
2022/07/05 05:23:51;;;;;;;2.80;1.10;;;;;;;15.84;100.00;102117.16;5004771;28;20216;-73
2022/07/05 05:26:17;;;;;;;2.07;1.40;;;;;;;15.84;100.00;102112.56;4995734;28;20271;-71
2022/07/05 05:28:42;;;;;;;1.27;0.90;;;;;;;16.00;100.00;102116.78;5002703;28;20192;-70
2022/07/05 05:31:08;;;;;;;2.90;0.80;;;;;;;15.62;100.00;102075.81;4984590;28;20693;-71
2022/07/05 05:33:33;;;;;;;1.97;0.90;;;;;;;16.13;100.00;102115.97;4998493;28;20196;-71
2022/07/05 05:36:00;;;;;;;0.80;0.80;;;;;;;16.20;100.00;102106.00;5001830;28;20227;-71
2022/07/05 05:38:25;;;;;;;3.30;1.40;;;;;;;16.21;100.00;102116.63;5004774;28;20181;-72
2022/07/05 05:40:50;;;;;;;2.57;0.90;;;;;;;15.98;100.00;102119.69;5005266;28;20430;-72
2022/07/05 05:43:17;;;;;;;2.60;1.40;;;;;;;16.05;100.00;102117.00;5005661;28;20223;-71
2022/07/05 05:45:42;;;;;;;2.50;1.00;;;;;;;16.19;100.00;102126.81;5003744;28;20226;-72
2022/07/05 05:48:07;;;;;;;2.30;1.20;;;;;;;15.95;100.00;102055.16;5007689;28;21104;-71
2022/07/05 05:50:35;;;;;;;1.10;0.97;;;;;;;16.11;100.00;102097.22;5004374;28;20609;-71
2022/07/05 05:53:01;;;;;;;3.40;1.40;;;;;;;16.17;100.00;102128.91;5005724;28;20213;-72
2022/07/05 05:55:28;;;;;;;2.30;1.00;;;;;;;15.98;100.00;102100.75;5005291;28;20978;-71
2022/07/05 05:57:54;;;;;;;3.30;1.37;;;;;;;16.27;100.00;102137.47;5005159;28;20192;-71
2022/07/05 06:00:21;;;;;;;3.53;1.03;;;;;;;16.20;100.00;102133.91;5006669;28;20471;-71
2022/07/05 06:02:49;;;;;;;4.23;1.17;;;;;;;16.29;100.00;102137.28;5003765;28;20514;-72
2022/07/05 06:05:15;;;;;;;1.60;1.10;;;;;;;16.31;100.00;102134.34;5003963;28;20535;-71
2022/07/05 06:07:48;;;;;;;6.40;1.27;;;;;;;16.43;100.00;102133.53;5000690;28;20494;-71
2022/07/05 06:10:19;;;;;;;3.30;1.40;;;;;;;16.12;100.00;102074.56;5002143;28;20437;-71
2022/07/05 06:12:44;;;;;;;2.07;1.00;;;;;;;15.92;100.00;102038.50;5002730;28;20470;-71
2022/07/05 06:15:10;;;;;;;1.43;0.90;;;;;;;16.49;100.00;102138.13;4992103;28;20439;-72
2022/07/05 06:17:39;;;;;;;2.70;1.03;;;;;;;16.57;100.00;102134.38;5006416;28;20595;-71
2022/07/05 06:20:09;;;;;;;2.07;1.03;;;;;;;16.63;100.00;102132.72;5008065;28;20188;-71
2022/07/05 06:22:35;;;;;;;1.20;0.80;;;;;;;16.72;100.00;102120.63;4993003;28;20448;-71
2022/07/05 06:25:01;;;;;;;1.47;0.90;;;;;;;15.92;100.00;101996.03;5008977;28;20460;-72
2022/07/05 06:27:26;;;;;;;4.20;1.20;;;;;;;16.78;100.00;102146.09;5009462;28;20199;-72
2022/07/05 06:29:52;;;;;;;3.30;1.33;;;;;;;16.59;100.00;102107.09;4992603;28;20181;-71
2022/07/05 06:32:17;;;;;;;1.53;1.10;;;;;;;16.49;100.00;102102.94;5006723;28;20295;-71
2022/07/05 06:34:42;;;;;;;2.20;1.43;;;;;;;16.19;100.00;102059.16;4993488;28;20714;-71
2022/07/05 06:37:08;;;;;;;1.50;1.00;;;;;;;16.83;100.00;102127.34;5009466;28;20717;-71
2022/07/05 06:39:33;;;;;;;2.47;1.20;;;;;;;17.07;100.00;102134.84;5010719;28;20193;-71
2022/07/05 06:41:59;;;;;;;2.30;1.17;;;;;;;16.97;100.00;102139.00;5008607;28;20191;-72
2022/07/05 06:44:24;;;;;;;1.83;1.10;;;;;;;17.04;100.00;102128.97;5004204;28;20223;-70
2022/07/05 06:46:50;;;;;;;2.87;1.10;;;;;;;17.05;100.00;102145.03;5006542;28;20196;-72
2022/07/05 06:49:15;;;;;;;2.67;0.97;;;;;;;16.89;100.00;102130.06;5006985;28;20604;-71
2022/07/05 06:51:41;;;;;;;2.47;1.10;;;;;;;16.80;100.00;102120.44;5008766;28;20195;-71
2022/07/05 06:54:06;;;;;;;1.80;1.00;;;;;;;16.88;100.00;102139.22;5008343;28;20288;-71
2022/07/05 06:56:31;;;;;;;1.90;0.87;;;;;;;17.14;100.00;102148.38;5009568;28;20225;-71
2022/07/05 06:58:57;;;;;;;1.70;0.93;;;;;;;16.75;100.00;102106.69;5010561;28;20641;-72
2022/07/05 07:01:22;;;;;;;1.37;1.10;;;;;;;17.28;100.00;102146.47;5007497;28;20223;-71
2022/07/05 07:03:47;;;;;;;1.40;0.83;;;;;;;17.21;100.00;102111.22;5006574;28;20208;-70
2022/07/05 07:06:13;;;;;;;3.03;1.30;;;;;;;17.32;100.00;102139.56;5005043;28;20204;-71
2022/07/05 07:11:22;;;;;;;8.87;1.07;;;;;;;17.23;100.00;102121.88;5006378;28;20660;-69
2022/07/05 07:13:47;;;;;;;3.47;1.00;;;;;;;17.14;100.00;102097.69;5003616;28;20538;-70
2022/07/05 07:16:13;;;;;;;1.10;0.70;;;;;;;17.48;100.00;102116.59;4990232;28;20185;-72
2022/07/05 07:18:39;;;;;;;1.37;0.60;;;;;;;17.73;100.00;102135.69;4988914;28;20193;-72
2022/07/05 07:21:05;;;;;;;1.63;0.90;;;;;;;17.54;100.00;102130.13;4988851;28;20196;-71
2022/07/05 07:23:30;;;;;;;1.37;0.70;;;;;;;17.46;100.00;102113.25;5007735;28;20209;-71
2022/07/05 07:25:56;;;;;;;2.70;0.77;;;;;;;17.47;100.00;102120.34;5007328;28;21026;-70
2022/07/05 07:28:21;;;;;;;3.97;0.90;;;;;;;17.51;100.00;102143.28;5004699;28;20292;-71
2022/07/05 07:30:46;;;;;;;0.90;0.70;;;;;;;17.59;100.00;102133.03;5008611;28;20197;-70
2022/07/05 07:33:12;;;;;;;1.00;0.77;;;;;;;17.63;100.00;102142.41;5008141;28;20654;-70
2022/07/05 07:35:37;;;;;;;3.37;1.17;;;;;;;17.52;100.00;102151.22;5007959;28;20189;-70
2022/07/05 07:38:03;;;;;;;1.90;0.93;;;;;;;17.67;100.00;102161.78;5008282;28;20181;-71
2022/07/05 07:40:28;;;;;;;3.40;0.70;;;;;;;17.31;100.00;102110.81;5006276;28;21001;-70
2022/07/05 07:42:54;;;;;;;3.33;1.20;;;;;;;17.69;100.00;102159.72;5007124;28;20255;-70
2022/07/05 07:45:19;;;;;;;2.13;1.00;;;;;;;17.55;100.00;102120.94;5002890;28;20201;-70
2022/07/05 07:47:45;;;;;;;2.40;0.80;;;;;;;17.90;100.00;102155.91;5005337;28;20192;-71
2022/07/05 07:50:10;;;;;;;2.20;0.80;;;;;;;17.64;100.00;102118.81;5007077;28;20185;-70
2022/07/05 07:52:37;;;;;;;2.10;1.13;;;;;;;17.95;100.00;102161.53;5008814;28;20670;-70
2022/07/05 07:55:04;;;;;;;7.03;0.70;;;;;;;17.56;100.00;102084.63;5004111;28;20177;-72
2022/07/05 07:57:29;;;;;;;3.53;1.70;;;;;;;17.97;100.00;102151.28;5008217;28;20443;-71
2022/07/05 07:59:55;;;;;;;1.07;0.80;;;;;;;18.03;100.00;102147.69;5005944;28;20828;-71
2022/07/05 08:02:22;;;;;;;2.50;0.80;;;;;;;18.21;100.00;102157.84;5008633;28;20216;-71
2022/07/05 08:04:51;;;;;;;2.40;0.80;;;;;;;17.73;100.00;102084.13;5006614;28;20200;-72
2022/07/05 08:07:18;;;;;;;1.10;0.77;;;;;;;18.15;100.00;102163.31;5006954;28;20416;-72
2022/07/05 08:09:44;;;;;;;1.57;0.63;;;;;;;18.09;100.00;102156.03;5002826;28;20459;-71
2022/07/05 08:12:09;;;;;;;1.30;0.67;;;;;;;18.18;100.00;102136.56;5003099;28;20436;-70
2022/07/05 08:14:35;;;;;;;1.37;0.90;;;;;;;18.49;100.00;102140.34;5001157;28;20731;-71
2022/07/05 08:17:00;;;;;;;3.10;1.20;;;;;;;18.28;100.00;102136.06;4997542;28;20834;-70
2022/07/05 08:22:24;;;;;;;1.13;0.60;;;;;;;18.57;100.00;102150.09;4937753;28;21032;-71
2022/07/05 08:24:50;;;;;;;2.20;0.73;;;;;;;18.59;100.00;102169.72;5000702;28;20464;-71
2022/07/05 08:27:15;;;;;;;3.03;0.93;;;;;;;18.63;100.00;102154.63;5004985;28;20447;-72
2022/07/05 08:29:41;;;;;;;1.53;0.70;;;;;;;18.20;100.00;102126.31;4985490;28;20193;-73
2022/07/05 08:32:08;;;;;;;2.30;0.83;;;;;;;18.60;100.00;102150.50;4998316;28;20197;-71
2022/07/05 08:34:34;;;;;;;3.33;0.70;;;;;;;18.48;100.00;102108.75;5001404;28;20455;-71
2022/07/05 08:36:59;;;;;;;1.27;0.73;;;;;;;18.88;100.00;102112.00;5003937;28;20455;-71
2022/07/05 08:39:25;;;;;;;4.10;1.07;;;;;;;18.59;100.00;102167.00;4988105;28;20657;-72
2022/07/05 08:41:54;;;;;;;2.10;0.70;;;;;;;18.48;100.00;102147.63;5005815;28;20563;-71
2022/07/05 08:44:21;;;;;;;2.53;0.90;;;;;;;17.72;100.00;102090.63;5002319;28;20196;-72
2022/07/05 08:46:50;;;;;;;1.83;0.73;;;;;;;18.27;100.00;102162.41;5002109;28;20486;-70
2022/07/05 08:49:21;;;;;;;2.30;0.73;;;;;;;18.24;100.00;102165.53;4989303;28;20519;-71
2022/07/05 08:51:47;;;;;;;2.63;0.90;;;;;;;17.83;100.00;102109.78;4987618;28;20939;-72
2022/07/05 08:54:16;;;;;;;2.70;0.70;;;;;;;18.10;100.00;102136.81;5003186;28;20493;-71
2022/07/05 08:56:43;;;;;;;8.37;0.90;;;;;;;18.30;100.00;102174.72;4989409;28;20443;-71
2022/07/05 08:59:08;;;;;;;1.77;0.80;;;;;;;17.67;100.00;102093.13;5006956;28;20539;-71
2022/07/05 09:01:35;;;;;;;1.77;0.80;;;;;;;18.35;100.00;102174.91;5003198;28;20471;-71
2022/07/05 09:04:04;;;;;;;4.07;1.00;;;;;;;18.18;100.00;102169.13;5007648;28;20653;-71
2022/07/05 09:06:32;;;;;;;1.53;0.73;;;;;;;18.29;100.00;102164.91;5001922;28;20463;-71
2022/07/05 09:08:59;;;;;;;2.87;0.87;;;;;;;18.30;100.00;102186.41;5004162;28;20447;-71
2022/07/05 09:11:30;;;;;;;2.20;0.80;;;;;;;18.18;100.00;102135.72;5002356;28;20436;-71
2022/07/05 09:13:56;;;;;;;1.63;0.70;;;;;;;18.57;100.00;102178.06;5006260;28;20984;-71
2022/07/05 09:16:23;;;;;;;1.60;0.70;;;;;;;18.49;100.00;102179.19;5003645;28;20443;-73
2022/07/05 09:18:53;;;;;;;2.10;0.70;;;;;;;18.55;100.00;102180.19;5005699;28;20189;-71
2022/07/05 09:21:22;;;;;;;1.80;1.00;;;;;;;18.43;100.00;102171.91;5001490;28;20482;-70
2022/07/05 09:23:59;;;;;;;3.77;1.20;;;;;;;18.35;100.00;102179.50;5003061;28;20472;-70
2022/07/05 09:26:37;;;;;;;2.80;1.10;;;;;;;18.46;100.00;102176.91;4982246;28;20950;-71
2022/07/05 09:29:05;;;;;;;2.03;0.87;;;;;;;18.37;100.00;102175.53;5003241;28;20468;-72
2022/07/05 09:31:32;;;;;;;2.10;1.03;;;;;;;18.65;100.00;102180.53;5001241;28;20505;-72
2022/07/05 09:34:22;;;;;;;3.10;1.30;;;;;;;18.40;100.00;102176.94;5006673;28;20455;-71
2022/07/05 09:36:54;;;;;;;4.50;0.87;;;;;;;18.52;100.00;102186.06;5005996;28;20432;-70
2022/07/05 09:39:28;;;;;;;2.00;0.80;;;;;;;18.55;100.00;102187.53;5005736;28;20424;-71
2022/07/05 09:42:23;;;;;;;4.13;0.80;;;;;;;18.43;100.00;102187.41;5004749;28;20422;-71
2022/07/05 09:44:56;;;;;;;1.90;0.90;;;;;;;18.87;100.00;102185.66;4996202;28;20464;-71
2022/07/05 09:47:24;;;;;;;2.83;0.80;;;;;;;18.73;100.00;102193.91;5003243;28;20446;-70
2022/07/05 09:49:51;;;;;;;2.30;1.00;;;;;;;18.65;100.00;102196.84;5004579;28;20443;-71
2022/07/05 09:52:27;;;;;;;1.53;0.83;;;;;;;18.79;100.00;102208.50;5005706;28;20957;-71
2022/07/05 09:55:10;;;;;;;3.83;1.00;;;;;;;18.64;100.00;102202.50;5009086;28;20519;-73
2022/07/05 09:57:39;;;;;;;3.27;0.90;;;;;;;18.70;100.00;102177.16;5005445;28;20447;-72
2022/07/05 10:00:10;;;;;;;3.20;0.90;;;;;;;18.46;100.00;102148.94;5003526;28;20566;-71
2022/07/05 10:02:46;;;;;;;2.10;0.73;;;;;;;18.90;100.00;102204.22;5007409;28;20877;-72
2022/07/05 10:05:19;;;;;;;1.73;0.80;;;;;;;18.63;100.00;102207.13;5008491;28;20459;-72
2022/07/05 10:07:56;;;;;;;5.30;1.50;;;;;;;18.58;100.00;102204.22;5009645;28;20790;-71
2022/07/05 10:10:23;;;;;;;4.20;1.70;;;;;;;18.78;100.00;102197.84;5008895;28;20458;-71
2022/07/05 10:12:51;;;;;;;2.13;0.90;;;;;;;18.67;100.00;102219.19;5016823;23;20565;-75
2022/07/05 10:15:20;;;;;;;0.90;0.70;;;;;;;18.65;100.00;102215.03;5003967;28;20428;-71
2022/07/05 10:17:52;;;;;;;2.10;0.87;;;;;;;18.90;100.00;102206.97;5003621;28;20427;-69
2022/07/05 10:20:32;;;;;;;2.27;1.00;;;;;;;18.79;100.00;102200.34;5001098;28;20486;-71
2022/07/05 10:22:58;;;;;;;2.40;0.80;;;;;;;18.78;100.00;102206.00;5000832;28;20468;-69
2022/07/05 10:25:26;;;;;;;1.83;0.90;;;;;;;18.37;100.00;102170.09;5004394;28;20465;-69
2022/07/05 10:27:53;;;;;;;3.30;0.80;;;;;;;18.85;100.00;102202.16;5005427;28;20193;-69
2022/07/05 10:30:20;;;;;;;2.87;1.23;;;;;;;18.71;100.00;102204.09;4991456;28;20794;-71
2022/07/05 10:32:47;;;;;;;2.53;0.97;;;;;;;18.38;100.00;102171.75;5005436;28;20447;-71
2022/07/05 10:35:12;;;;;;;1.27;0.80;;;;;;;18.71;100.00;102204.09;5003777;28;20435;-70
2022/07/05 10:37:38;;;;;;;1.80;0.83;;;;;;;18.76;100.00;102199.94;5003688;28;20426;-71
2022/07/05 10:40:06;;;;;;;1.70;0.60;;;;;;;18.58;100.00;102184.38;5004900;28;20661;-71
2022/07/05 10:42:36;;;;;;;4.10;0.87;;;;;;;18.72;100.00;102213.94;5004189;28;20669;-71
2022/07/05 10:45:02;;;;;;;2.30;0.70;;;;;;;18.38;100.00;102200.78;5004019;28;21026;-73
2022/07/05 10:47:29;;;;;;;2.57;0.80;;;;;;;18.16;100.00;102122.34;5003905;28;20431;-75
2022/07/05 10:50:04;;;;;;;4.20;0.97;;;;;;;18.73;100.00;102222.94;5002855;28;20431;-71
2022/07/05 10:52:29;;;;;;;5.10;1.30;;;;;;;18.67;100.00;102205.63;5001949;28;21133;-71
2022/07/05 10:55:16;;;;;;;2.77;0.77;;;;;;;18.69;100.00;102219.81;5004178;28;20515;-72
2022/07/05 10:57:42;;;;;;;5.80;0.77;;;;;;;18.55;100.00;102173.94;5003722;28;20244;-70
2022/07/05 11:00:11;;;;;;;1.90;0.80;;;;;;;18.86;100.00;102219.31;5002334;28;20432;-71
2022/07/05 11:02:38;;;;;;;1.43;0.70;;;;;;;19.31;100.00;102219.16;4997337;28;20623;-69
2022/07/05 11:05:04;;;;;;;1.50;0.63;;;;;;;18.90;100.00;102144.44;5002126;28;20459;-70
2022/07/05 11:07:58;;;;;;;2.43;0.87;;;;;;;19.20;100.00;102216.09;5000732;28;20443;-75
2022/07/05 11:10:23;;;;;;;2.63;1.00;;;;;;;19.24;100.00;102210.22;4999026;28;20441;-71
2022/07/05 11:12:49;;;;;;;1.33;0.70;;;;;;;19.27;100.00;102198.91;4997759;28;20847;-72
2022/07/05 11:15:14;;;;;;;2.53;0.77;;;;;;;19.28;100.00;102208.72;4998080;28;20208;-72
2022/07/05 11:17:40;;;;;;;1.73;0.77;;;;;;;19.18;100.00;102144.78;4999672;28;20669;-70
2022/07/05 11:20:08;;;;;;;2.57;0.90;;;;;;;19.69;100.00;102199.94;4999176;28;20193;-72
2022/07/05 11:23:07;;;;;;;1.37;0.90;;;;;;;19.45;100.00;102207.09;4999879;28;20260;-74
2022/07/05 11:25:36;;;;;;;3.00;0.80;;;;;;;19.60;100.00;102207.53;4999064;28;20544;-73